Cumby, Texas
Current Conditions -  °F | °C
As of 3:55 AM on Thursday 29 Jan 2015 (Local Time) from KSLR Reporting Station
Scattered Clouds Scattered Clouds  
Wind Chill: 60°   Ceiling: Unl
Heat Index: 60°   Visibility: 10mi
Dew Point: 45°   Wind: 15mph
Humidity: 58%   Direction: 220°SW
Pressure: 30.1"   Gusts: NA
Location:  33.14°N, 95.84°W
Report Text: KSLR 290955Z AUTO 22013KT 10SM SCT110 16/07 A3010 RMK AO2 T01550073
Loading
Personal Weather Stations






























Interactive Weather Map New forecast layout! Learn more

10-Day Weather Forecast

Advertisements
Track Severe Weather on mobile